Terminal Aerodrome Forecast
Issued by NWS

Home | Current Version | Previous Version | Text Only | Print | Product List | Glossary Off
Versions: 1 2 3 4 5 6 7 8 9 10 11 12 13 14 15 16 17 18 19 20 21 22 23 24 25 26

477
FTUS43 KGRB 140520
TAFAUW
TAF
KAUW 140520Z 1406/1506 34007KT P6SM SCT025 SCT035
      TEMPO 1406/1410 -SHSN BKN025 BKN035
     FM141000 27003KT P6SM BKN024
     FM141700 27004KT P6SM BKN018
     FM150200 28004KT P6SM -SHSN BKN021
     FM150500 28004KT P6SM -SHSN BKN030=

USA.gov is the U.S. government's official web portal to all federal, state and local government web resources and services.